createdAt,value
2019-02-26T00:00:32.298Z,4.91
2019-02-26T00:01:32.291Z,4.94
2019-02-26T00:02:32.632Z,4.89
2019-02-26T00:03:33.232Z,4.76
2019-02-26T00:04:34.484Z,4.88
2019-02-26T00:05:33.078Z,4.94
2019-02-26T00:06:32.233Z,4.86
2019-02-26T00:07:32.311Z,4.94
2019-02-26T00:08:33.536Z,4.76
2019-02-26T00:09:35.034Z,4.77
2019-02-26T00:10:34.017Z,4.73
2019-02-26T00:11:33.387Z,4.59
2019-02-26T00:12:33.290Z,4.43
2019-02-26T00:13:34.098Z,4.37
2019-02-26T00:14:32.148Z,4.37
2019-02-26T00:15:35.496Z,4.32
2019-02-26T00:16:35.237Z,4.39
2019-02-26T00:17:36.191Z,4.47
2019-02-26T00:18:32.106Z,4.44
2019-02-26T00:19:32.094Z,4.47
2019-02-26T00:20:34.386Z,4.50
2019-02-26T00:21:32.074Z,4.47
2019-02-26T00:22:32.733Z,4.44
2019-02-26T00:23:32.084Z,4.50
2019-02-26T00:24:33.024Z,4.44
2019-02-26T00:25:32.031Z,4.46
2019-02-26T00:26:34.018Z,4.43
2019-02-26T00:27:33.003Z,4.55
2019-02-26T00:28:32.000Z,4.50
2019-02-26T00:29:32.242Z,4.37
2019-02-26T00:30:33.466Z,4.39
2019-02-26T00:31:31.968Z,4.39
2019-02-26T00:32:33.822Z,4.37
2019-02-26T00:33:31.947Z,4.22
2019-02-26T00:34:32.750Z,4.33
2019-02-26T00:35:31.937Z,4.36
2019-02-26T00:36:33.526Z,4.28
2019-02-26T00:37:31.905Z,4.29
2019-02-26T00:38:33.059Z,4.29
2019-02-26T00:39:31.885Z,4.26
2019-02-26T00:40:32.695Z,4.28
2019-02-26T00:41:33.537Z,4.25
2019-02-26T00:42:33.783Z,4.26
2019-02-26T00:43:32.381Z,4.28
2019-02-26T00:44:32.732Z,4.29
2019-02-26T00:45:34.006Z,4.28
2019-02-26T00:46:32.628Z,4.21
2019-02-26T00:47:33.859Z,4.19
2019-02-26T00:48:33.627Z,4.19
2019-02-26T00:49:31.779Z,4.16
2019-02-26T00:50:33.136Z,4.18
2019-02-26T00:51:31.769Z,4.07
2019-02-26T00:52:32.643Z,4.04
2019-02-26T00:53:33.051Z,3.96
2019-02-26T00:54:32.684Z,3.90
2019-02-26T00:55:32.173Z,3.94
2019-02-26T00:56:33.864Z,3.96
2019-02-26T00:57:33.443Z,4.06
2019-02-26T00:58:32.063Z,3.96
2019-02-26T00:59:31.692Z,3.94
2019-02-26T01:00:33.186Z,3.97
2019-02-26T01:01:31.653Z,3.86
2019-02-26T01:02:31.643Z,3.85
2019-02-26T01:03:31.633Z,3.75
2019-02-26T01:04:31.622Z,3.67
2019-02-26T01:05:31.624Z,3.58
2019-02-26T01:06:33.437Z,3.44
2019-02-26T01:07:31.589Z,3.34
2019-02-26T01:08:31.580Z,3.20
2019-02-26T01:09:32.353Z,3.23
2019-02-26T01:10:31.557Z,3.31
2019-02-26T01:11:31.577Z,3.42
2019-02-26T01:12:33.051Z,3.44
2019-02-26T01:13:32.271Z,3.57
2019-02-26T01:14:31.530Z,3.54
2019-02-26T01:15:31.502Z,3.68
2019-02-26T01:16:31.493Z,3.68
2019-02-26T01:17:33.264Z,3.62
2019-02-26T01:18:31.482Z,3.64
2019-02-26T01:19:32.087Z,3.62
2019-02-26T01:20:31.996Z,3.71
2019-02-26T01:21:33.537Z,3.78
2019-02-26T01:22:33.050Z,3.64
2019-02-26T01:23:31.430Z,3.49
2019-02-26T01:24:32.717Z,3.25
2019-02-26T01:25:31.395Z,3.18
2019-02-26T01:26:31.385Z,3.15
2019-02-26T01:27:31.375Z,3.07
2019-02-26T01:28:31.362Z,3.05
2019-02-26T01:29:32.354Z,3.07
2019-02-26T01:30:33.633Z,3.23
2019-02-26T01:31:32.073Z,3.23
2019-02-26T01:32:31.319Z,3.21
2019-02-26T01:33:32.140Z,3.25
2019-02-26T01:34:31.297Z,3.31
2019-02-26T01:35:33.162Z,3.31
2019-02-26T01:36:31.274Z,3.28
2019-02-26T01:37:32.205Z,3.21
2019-02-26T01:38:31.257Z,3.23
2019-02-26T01:39:31.243Z,3.18
2019-02-26T01:40:31.231Z,3.23
2019-02-26T01:41:31.238Z,3.21
2019-02-26T01:42:31.654Z,3.33
2019-02-26T01:43:31.198Z,3.34
2019-02-26T01:44:32.960Z,3.34
2019-02-26T01:45:32.367Z,3.28
2019-02-26T01:46:32.261Z,3.27
2019-02-26T01:47:31.168Z,3.24
2019-02-26T01:48:32.203Z,3.24
2019-02-26T01:49:31.135Z,3.24
2019-02-26T01:50:33.223Z,3.23
2019-02-26T01:51:31.115Z,3.21
2019-02-26T01:52:31.105Z,3.27
2019-02-26T01:53:31.103Z,3.31
2019-02-26T01:54:32.969Z,3.36
2019-02-26T01:55:31.069Z,3.31
2019-02-26T01:56:31.057Z,3.44
2019-02-26T01:57:31.047Z,3.34
2019-02-26T01:58:33.485Z,3.31
2019-02-26T01:59:33.588Z,3.36
2019-02-26T02:00:31.016Z,3.28
2019-02-26T02:01:31.003Z,3.30
2019-02-26T02:02:30.993Z,3.27
2019-02-26T02:03:32.570Z,3.40
2019-02-26T02:04:32.036Z,3.34
2019-02-26T02:05:31.442Z,3.43
2019-02-26T02:06:33.113Z,3.36
2019-02-26T02:07:30.945Z,3.31
2019-02-26T02:08:30.928Z,3.31
2019-02-26T02:09:30.920Z,3.23
2019-02-26T02:10:30.905Z,3.27
2019-02-26T02:11:31.602Z,3.16
2019-02-26T02:12:32.419Z,3.23
2019-02-26T02:13:32.967Z,3.16
2019-02-26T02:14:30.865Z,3.10
2019-02-26T02:15:30.850Z,3.07
2019-02-26T02:16:31.458Z,3.06
2019-02-26T02:17:31.605Z,2.94
2019-02-26T02:18:30.818Z,2.89
2019-02-26T02:19:32.559Z,2.97
2019-02-26T02:20:30.796Z,2.84
2019-02-26T02:21:31.472Z,2.95
2019-02-26T02:22:30.789Z,2.88
2019-02-26T02:23:30.773Z,2.94
2019-02-26T02:24:30.755Z,3.03
2019-02-26T02:25:33.169Z,2.97
2019-02-26T02:26:30.738Z,2.91
2019-02-26T02:27:33.130Z,2.89
2019-02-26T02:28:31.059Z,2.81
2019-02-26T02:29:30.710Z,2.77
2019-02-26T02:30:31.730Z,2.77
2019-02-26T02:31:32.226Z,2.81
2019-02-26T02:32:32.341Z,2.84
2019-02-26T02:33:33.109Z,2.89
2019-02-26T02:34:32.956Z,2.88
2019-02-26T02:35:31.650Z,2.91
2019-02-26T02:36:30.626Z,2.89
2019-02-26T02:37:31.977Z,2.79
2019-02-26T02:38:30.603Z,2.69
2019-02-26T02:39:30.594Z,2.56
2019-02-26T02:40:30.582Z,2.48
2019-02-26T02:41:30.583Z,2.44
2019-02-26T02:42:30.560Z,2.23
2019-02-26T02:43:30.552Z,2.15
2019-02-26T02:44:30.539Z,2.02
2019-02-26T02:45:30.529Z,2.12
2019-02-26T02:46:30.518Z,2.16
2019-02-26T02:47:33.196Z,2.13
2019-02-26T02:48:30.508Z,2.20
2019-02-26T02:49:32.777Z,2.19
2019-02-26T02:50:31.487Z,2.22
2019-02-26T02:51:31.539Z,2.20
2019-02-26T02:52:32.472Z,2.33
2019-02-26T02:53:32.280Z,2.31
2019-02-26T02:54:30.443Z,2.38
2019-02-26T02:55:30.424Z,2.38
2019-02-26T02:56:30.911Z,2.44
2019-02-26T02:57:32.632Z,2.41
2019-02-26T02:58:30.398Z,2.35
2019-02-26T02:59:31.024Z,2.35
2019-02-26T03:00:32.159Z,2.35
2019-02-26T03:01:30.361Z,2.48
2019-02-26T03:02:30.351Z,2.48
2019-02-26T03:03:30.339Z,2.46
2019-02-26T03:04:31.745Z,2.51
2019-02-26T03:05:33.683Z,2.48
2019-02-26T03:06:32.388Z,2.59
2019-02-26T03:07:30.298Z,2.58
2019-02-26T03:08:30.287Z,2.63
2019-02-26T03:09:31.763Z,2.56
2019-02-26T03:10:33.523Z,2.56
2019-02-26T03:11:30.277Z,2.52
2019-02-26T03:12:30.247Z,2.52
2019-02-26T03:13:30.240Z,2.61
2019-02-26T03:14:33.054Z,2.59
2019-02-26T03:15:33.768Z,2.58
2019-02-26T03:16:30.205Z,2.52
2019-02-26T03:17:30.209Z,2.56
2019-02-26T03:18:30.184Z,2.49
2019-02-26T03:19:32.452Z,2.51
2019-02-26T03:20:31.347Z,2.55
2019-02-26T03:21:31.152Z,2.55
2019-02-26T03:22:30.148Z,2.58
2019-02-26T03:23:31.360Z,2.51
2019-02-26T03:24:31.408Z,2.53
2019-02-26T03:25:30.111Z,2.48
2019-02-26T03:26:30.106Z,2.46
2019-02-26T03:27:31.317Z,2.48
2019-02-26T03:28:34.882Z,2.45
2019-02-26T03:29:31.084Z,2.44
2019-02-26T03:30:36.886Z,2.41
2019-02-26T03:31:35.197Z,2.34
2019-02-26T03:32:31.046Z,2.49
2019-02-26T03:33:30.029Z,2.45
2019-02-26T03:34:30.030Z,2.48
2019-02-26T03:35:30.017Z,2.37
2019-02-26T03:36:31.628Z,2.46
2019-02-26T03:37:31.407Z,2.41
2019-02-26T03:38:29.976Z,2.46
2019-02-26T03:39:29.965Z,2.52
2019-02-26T03:40:32.909Z,2.55
2019-02-26T03:41:31.243Z,2.58
2019-02-26T03:42:29.934Z,2.61
2019-02-26T03:43:31.440Z,2.58
2019-02-26T03:44:30.429Z,2.73
2019-02-26T03:45:29.902Z,2.67
2019-02-26T03:46:29.892Z,2.76
2019-02-26T03:47:29.893Z,2.70
2019-02-26T03:48:29.873Z,2.59
2019-02-26T03:49:29.862Z,2.58
2019-02-26T03:50:29.854Z,2.64
2019-02-26T03:51:29.848Z,2.59
2019-02-26T03:52:32.137Z,2.53
2019-02-26T03:53:31.322Z,2.49
2019-02-26T03:54:29.810Z,2.49
2019-02-26T03:55:31.727Z,2.45
2019-02-26T03:56:29.788Z,2.44
2019-02-26T03:57:29.778Z,2.40
2019-02-26T03:58:29.767Z,2.30
2019-02-26T03:59:29.771Z,2.31
2019-02-26T04:00:31.558Z,2.34
2019-02-26T04:01:29.739Z,2.23
2019-02-26T04:02:29.726Z,2.37
2019-02-26T04:03:31.998Z,2.20
2019-02-26T04:04:31.113Z,2.34
2019-02-26T04:05:29.713Z,2.28
2019-02-26T04:06:30.596Z,2.30
2019-02-26T04:07:30.253Z,2.23
2019-02-26T04:08:30.308Z,2.33
2019-02-26T04:09:29.657Z,2.33
2019-02-26T04:10:29.645Z,2.34
2019-02-26T04:11:29.644Z,2.35
2019-02-26T04:12:29.627Z,2.44
2019-02-26T04:13:29.616Z,2.34
2019-02-26T04:14:30.720Z,2.38
2019-02-26T04:15:31.027Z,2.35
2019-02-26T04:16:30.309Z,2.34
2019-02-26T04:17:30.743Z,2.23
2019-02-26T04:18:34.150Z,2.31
2019-02-26T04:19:30.550Z,2.33
2019-02-26T04:20:29.539Z,2.31
2019-02-26T04:21:29.529Z,2.35
2019-02-26T04:22:29.520Z,2.33
2019-02-26T04:23:29.522Z,2.26
2019-02-26T04:24:32.603Z,2.26
2019-02-26T04:25:33.264Z,2.28
2019-02-26T04:26:34.419Z,2.22
2019-02-26T04:27:30.700Z,2.13
2019-02-26T04:28:33.099Z,2.22
2019-02-26T04:29:29.458Z,2.17
2019-02-26T04:30:34.072Z,2.27
2019-02-26T04:31:30.424Z,2.17
2019-02-26T04:32:29.414Z,2.13
2019-02-26T04:33:30.413Z,2.17
2019-02-26T04:34:29.441Z,2.10
2019-02-26T04:35:29.396Z,2.08
2019-02-26T04:36:29.371Z,2.10
2019-02-26T04:37:30.710Z,2.17
2019-02-26T04:38:31.190Z,2.15
2019-02-26T04:39:29.352Z,2.17
2019-02-26T04:40:30.393Z,2.17
2019-02-26T04:41:29.329Z,2.17
2019-02-26T04:42:29.310Z,2.22
2019-02-26T04:43:31.316Z,2.13
2019-02-26T04:44:31.333Z,2.28
2019-02-26T04:45:29.277Z,2.23
2019-02-26T04:46:31.602Z,2.02
2019-02-26T04:47:33.146Z,2.15
2019-02-26T04:48:31.704Z,2.15
2019-02-26T04:49:30.890Z,2.12
2019-02-26T04:50:32.376Z,2.12
2019-02-26T04:51:30.221Z,2.08
2019-02-26T04:52:31.597Z,2.09
2019-02-26T04:53:31.195Z,2.01
2019-02-26T04:54:31.182Z,1.97
2019-02-26T04:55:31.872Z,2.01
2019-02-26T04:56:31.416Z,1.90
2019-02-26T04:57:29.151Z,1.90
2019-02-26T04:58:29.140Z,1.90
2019-02-26T04:59:30.008Z,1.91
2019-02-26T05:00:30.384Z,1.80
2019-02-26T05:01:29.119Z,1.85
2019-02-26T05:02:29.099Z,1.80
2019-02-26T05:03:29.089Z,1.69
2019-02-26T05:04:30.739Z,1.78
2019-02-26T05:05:33.675Z,1.73
2019-02-26T05:06:30.067Z,1.78
2019-02-26T05:07:29.054Z,1.75
2019-02-26T05:08:31.556Z,1.62
2019-02-26T05:09:30.619Z,1.76
2019-02-26T05:10:31.766Z,1.75
2019-02-26T05:11:32.679Z,1.64
2019-02-26T05:12:31.643Z,1.65
2019-02-26T05:13:30.064Z,1.65
2019-02-26T05:14:28.970Z,1.69
2019-02-26T05:15:30.923Z,1.60
2019-02-26T05:16:31.736Z,1.60
2019-02-26T05:17:32.630Z,1.58
2019-02-26T05:18:31.633Z,1.55
2019-02-26T05:19:28.914Z,1.55
2019-02-26T05:20:31.266Z,1.50
2019-02-26T05:21:30.419Z,1.39
2019-02-26T05:22:31.004Z,1.46
2019-02-26T05:23:31.693Z,1.37
2019-02-26T05:24:28.861Z,1.39
2019-02-26T05:25:28.851Z,1.33
2019-02-26T05:26:30.231Z,1.32
2019-02-26T05:27:28.829Z,1.34
2019-02-26T05:28:32.690Z,1.26
2019-02-26T05:29:28.818Z,1.42
2019-02-26T05:30:28.796Z,1.40
2019-02-26T05:31:29.624Z,1.42
2019-02-26T05:32:30.911Z,1.36
2019-02-26T05:33:30.975Z,1.36
2019-02-26T05:34:28.754Z,1.34
2019-02-26T05:35:28.755Z,1.33
2019-02-26T05:36:31.095Z,1.29
2019-02-26T05:37:29.798Z,1.39
2019-02-26T05:38:30.567Z,1.43
2019-02-26T05:39:28.955Z,1.42
2019-02-26T05:40:28.691Z,1.32
2019-02-26T05:41:28.699Z,1.29
2019-02-26T05:42:28.670Z,1.33
2019-02-26T05:43:30.671Z,1.37
2019-02-26T05:44:28.651Z,1.33
2019-02-26T05:45:29.866Z,1.33
2019-02-26T05:46:29.483Z,1.32
2019-02-26T05:47:28.630Z,1.29
2019-02-26T05:48:28.661Z,1.32
2019-02-26T05:49:28.597Z,1.25
2019-02-26T05:50:30.220Z,1.22
2019-02-26T05:51:31.984Z,1.29
2019-02-26T05:52:30.646Z,1.22
2019-02-26T05:53:28.567Z,1.26
2019-02-26T05:54:28.547Z,1.34
2019-02-26T05:55:28.555Z,1.28
2019-02-26T05:56:28.523Z,1.28
2019-02-26T05:57:32.561Z,1.33
2019-02-26T05:58:28.503Z,1.18
2019-02-26T05:59:28.505Z,1.25
2019-02-26T06:00:30.567Z,1.16
2019-02-26T06:01:28.471Z,1.28
2019-02-26T06:02:28.460Z,1.24
2019-02-26T06:03:28.451Z,1.25
2019-02-26T06:04:28.441Z,1.08
2019-02-26T06:05:28.444Z,1.15
2019-02-26T06:06:28.420Z,1.21
2019-02-26T06:07:31.364Z,1.15
2019-02-26T06:08:32.675Z,1.19
2019-02-26T06:09:30.549Z,1.21
2019-02-26T06:10:30.518Z,1.15
2019-02-26T06:11:31.240Z,1.03
2019-02-26T06:12:32.415Z,0.98
2019-02-26T06:13:29.150Z,1.08
2019-02-26T06:14:31.206Z,0.98
2019-02-26T06:15:29.637Z,0.98
2019-02-26T06:16:29.050Z,0.90
2019-02-26T06:17:28.318Z,0.94
2019-02-26T06:18:28.295Z,0.94
2019-02-26T06:19:30.102Z,0.90
2019-02-26T06:20:30.771Z,1.00
2019-02-26T06:21:28.263Z,0.94
2019-02-26T06:22:29.696Z,0.86
2019-02-26T06:23:31.216Z,0.76
2019-02-26T06:24:29.811Z,0.85
2019-02-26T06:25:28.239Z,0.82
2019-02-26T06:26:32.407Z,0.89
2019-02-26T06:27:28.199Z,0.88
2019-02-26T06:28:28.189Z,0.86
2019-02-26T06:29:30.002Z,0.71
2019-02-26T06:30:28.168Z,0.70
2019-02-26T06:31:28.158Z,0.82
2019-02-26T06:32:31.967Z,0.80
2019-02-26T06:33:31.761Z,0.80
2019-02-26T06:34:28.126Z,0.92
2019-02-26T06:35:28.126Z,0.90
2019-02-26T06:36:28.677Z,1.01
2019-02-26T06:37:29.176Z,1.08
2019-02-26T06:38:30.289Z,1.08
2019-02-26T06:39:29.951Z,1.07
2019-02-26T06:40:28.065Z,1.03
2019-02-26T06:41:28.066Z,1.04
2019-02-26T06:42:28.822Z,0.90
2019-02-26T06:43:28.032Z,0.90
2019-02-26T06:44:28.024Z,0.90
2019-02-26T06:45:28.012Z,0.88
2019-02-26T06:46:29.384Z,0.85
2019-02-26T06:47:30.524Z,0.85
2019-02-26T06:48:29.803Z,0.98
2019-02-26T06:49:29.094Z,1.01
2019-02-26T06:50:27.960Z,0.97
2019-02-26T06:51:28.918Z,0.96
2019-02-26T06:52:29.892Z,0.89
2019-02-26T06:53:27.939Z,0.75
2019-02-26T06:54:29.150Z,0.64
2019-02-26T06:55:27.907Z,0.61
2019-02-26T06:56:30.013Z,0.57
2019-02-26T06:57:27.886Z,0.58
2019-02-26T06:58:27.875Z,0.42
2019-02-26T06:59:29.477Z,0.43
2019-02-26T07:00:29.379Z,0.53
2019-02-26T07:01:27.845Z,0.60
2019-02-26T07:02:29.037Z,0.52
2019-02-26T07:03:27.823Z,0.45
2019-02-26T07:04:30.050Z,0.53
2019-02-26T07:05:27.818Z,0.62
2019-02-26T07:06:30.179Z,0.79
2019-02-26T07:07:27.781Z,0.85
2019-02-26T07:08:30.412Z,1.01
2019-02-26T07:09:27.761Z,1.14
2019-02-26T07:10:29.530Z,1.24
2019-02-26T07:11:30.168Z,1.32
2019-02-26T07:12:27.731Z,1.26
2019-02-26T07:13:27.720Z,1.40
2019-02-26T07:14:29.735Z,1.55
2019-02-26T07:15:29.322Z,1.62
2019-02-26T07:16:27.687Z,1.76
2019-02-26T07:17:31.876Z,1.71
2019-02-26T07:18:28.664Z,1.68
2019-02-26T07:19:28.894Z,1.78
2019-02-26T07:20:33.910Z,1.99
2019-02-26T07:21:28.633Z,2.10
2019-02-26T07:22:27.625Z,2.17
2019-02-26T07:23:29.811Z,2.34
2019-02-26T07:24:27.602Z,2.49
2019-02-26T07:25:27.594Z,2.61
2019-02-26T07:26:27.581Z,2.70
2019-02-26T07:27:28.877Z,2.88
2019-02-26T07:28:27.559Z,2.94
2019-02-26T07:29:30.794Z,3.07
2019-02-26T07:30:28.537Z,3.18
2019-02-26T07:31:28.814Z,3.34
2019-02-26T07:32:27.517Z,3.52
2019-02-26T07:33:29.742Z,3.70
2019-02-26T07:34:27.536Z,3.80
2019-02-26T07:35:28.792Z,3.90
2019-02-26T07:36:28.159Z,3.92
2019-02-26T07:37:28.627Z,3.94
2019-02-26T07:38:27.745Z,3.96
2019-02-26T07:39:27.441Z,4.24
2019-02-26T07:40:28.406Z,4.26
2019-02-26T07:41:28.389Z,4.43
2019-02-26T07:42:27.408Z,4.47
2019-02-26T07:43:27.398Z,4.59
2019-02-26T07:44:28.384Z,4.67
2019-02-26T07:45:29.292Z,4.65
2019-02-26T07:46:27.367Z,4.89
2019-02-26T07:47:29.414Z,4.89
2019-02-26T07:48:29.454Z,5.05
2019-02-26T07:49:27.335Z,5.16
2019-02-26T07:50:31.485Z,5.28
2019-02-26T07:51:29.394Z,5.35
2019-02-26T07:52:28.437Z,5.38
2019-02-26T07:53:27.313Z,5.43
2019-02-26T07:54:28.851Z,5.53
2019-02-26T07:55:27.701Z,5.49
2019-02-26T07:56:28.186Z,5.59
2019-02-26T07:57:27.712Z,5.67
2019-02-26T07:58:27.239Z,5.74
2019-02-26T07:59:27.919Z,5.75
2019-02-26T08:00:27.215Z,5.77
2019-02-26T08:01:27.203Z,5.75
2019-02-26T08:02:27.825Z,5.83
2019-02-26T08:03:29.291Z,6.00
2019-02-26T08:04:27.186Z,6.04
2019-02-26T08:05:28.878Z,6.13
2019-02-26T08:06:29.203Z,6.33
2019-02-26T08:07:28.501Z,6.46
2019-02-26T08:08:27.128Z,6.62
2019-02-26T08:09:27.120Z,6.62
2019-02-26T08:10:27.106Z,6.71
2019-02-26T08:11:27.112Z,6.83
2019-02-26T08:12:27.085Z,6.94
2019-02-26T08:13:29.852Z,6.99
2019-02-26T08:14:27.063Z,6.91
2019-02-26T08:15:27.808Z,6.91
2019-02-26T08:16:27.686Z,7.15
2019-02-26T08:17:27.045Z,7.12
2019-02-26T08:18:27.022Z,7.17
2019-02-26T08:19:29.616Z,7.20
2019-02-26T08:20:28.437Z,7.24
2019-02-26T08:21:27.916Z,7.17
2019-02-26T08:22:27.562Z,7.15
2019-02-26T08:23:26.976Z,7.27
2019-02-26T08:24:26.957Z,7.38
2019-02-26T08:25:26.954Z,7.23
2019-02-26T08:26:29.057Z,7.32
2019-02-26T08:27:28.568Z,7.41
2019-02-26T08:28:26.911Z,7.40
2019-02-26T08:29:28.899Z,7.44
2019-02-26T08:30:26.892Z,7.42
2019-02-26T08:31:27.923Z,7.53
2019-02-26T08:32:28.631Z,7.69
2019-02-26T08:33:26.866Z,7.71
2019-02-26T08:34:26.847Z,7.71
2019-02-26T08:35:26.853Z,7.74
2019-02-26T08:36:26.823Z,7.84
2019-02-26T08:37:26.812Z,7.67
2019-02-26T08:38:29.247Z,7.41
2019-02-26T08:39:26.793Z,7.23
2019-02-26T08:40:26.795Z,7.29
2019-02-26T08:41:26.779Z,7.53
2019-02-26T08:42:26.759Z,7.67
2019-02-26T08:43:26.747Z,7.82
2019-02-26T08:44:28.160Z,7.87
2019-02-26T08:45:26.726Z,7.71
2019-02-26T08:46:26.719Z,7.66
2019-02-26T08:47:26.718Z,7.69
2019-02-26T08:48:27.092Z,7.52
2019-02-26T08:49:26.692Z,7.67
2019-02-26T08:50:30.721Z,7.71
2019-02-26T08:51:27.660Z,7.84
2019-02-26T08:52:28.953Z,7.85
2019-02-26T08:53:28.524Z,7.84
2019-02-26T08:54:28.390Z,7.90
2019-02-26T08:55:26.620Z,7.99
2019-02-26T08:56:28.176Z,8.18
2019-02-26T08:57:26.601Z,8.18
2019-02-26T08:58:28.254Z,8.33
2019-02-26T08:59:26.584Z,8.45
2019-02-26T09:00:26.564Z,8.48
2019-02-26T09:01:26.556Z,8.54
2019-02-26T09:02:26.542Z,8.60
2019-02-26T09:03:26.530Z,8.69
2019-02-26T09:04:26.522Z,8.86
2019-02-26T09:05:29.163Z,9.05
2019-02-26T09:06:27.497Z,9.21
2019-02-26T09:07:26.500Z,9.23
2019-02-26T09:08:26.489Z,9.27
2019-02-26T09:09:27.785Z,9.25
2019-02-26T09:10:26.469Z,9.06
2019-02-26T09:11:28.651Z,9.09
2019-02-26T09:12:27.262Z,9.02
2019-02-26T09:13:26.425Z,9.02
2019-02-26T09:14:26.417Z,9.10
2019-02-26T09:15:26.407Z,9.16
2019-02-26T09:16:28.280Z,9.32
2019-02-26T09:17:27.521Z,9.34
2019-02-26T09:18:28.051Z,9.28
2019-02-26T09:19:27.845Z,9.39
2019-02-26T09:20:26.348Z,9.48
2019-02-26T09:21:26.342Z,9.42
2019-02-26T09:22:28.383Z,9.56
2019-02-26T09:23:28.249Z,9.66
2019-02-26T09:24:26.300Z,9.81
2019-02-26T09:25:28.830Z,9.99
2019-02-26T09:26:26.283Z,10.06
2019-02-26T09:27:27.215Z,10.14
2019-02-26T09:28:27.153Z,10.18
2019-02-26T09:29:26.258Z,10.32
2019-02-26T09:30:28.057Z,10.37
2019-02-26T09:31:26.228Z,10.43
2019-02-26T09:32:28.267Z,10.55
2019-02-26T09:33:30.554Z,10.59
2019-02-26T09:34:29.287Z,10.42
2019-02-26T09:35:28.832Z,10.34
2019-02-26T09:36:29.147Z,10.40
2019-02-26T09:37:26.161Z,10.44
2019-02-26T09:38:26.681Z,10.46
2019-02-26T09:39:27.512Z,10.43
2019-02-26T09:40:28.553Z,10.60
2019-02-26T09:41:26.116Z,10.60
2019-02-26T09:42:27.805Z,10.62
2019-02-26T09:43:26.099Z,10.74
2019-02-26T09:44:26.926Z,10.78
2019-02-26T09:45:29.646Z,10.84
2019-02-26T09:46:26.079Z,10.84
2019-02-26T09:47:28.422Z,10.84
2019-02-26T09:48:26.042Z,10.89
2019-02-26T09:49:26.725Z,10.91
2019-02-26T09:50:26.021Z,10.92
2019-02-26T09:51:26.013Z,10.92
2019-02-26T09:52:27.698Z,11.13
2019-02-26T09:53:25.989Z,10.95
2019-02-26T09:54:25.978Z,10.92
2019-02-26T09:55:25.968Z,10.95
2019-02-26T09:56:25.957Z,11.07
2019-02-26T09:57:28.186Z,11.14
2019-02-26T09:58:25.953Z,11.21
2019-02-26T09:59:26.456Z,11.24
2019-02-26T10:00:29.100Z,11.35
2019-02-26T10:01:25.906Z,11.39
2019-02-26T10:02:26.431Z,11.41
2019-02-26T10:03:27.302Z,11.46
2019-02-26T10:04:26.531Z,11.54
2019-02-26T10:05:25.862Z,11.62
2019-02-26T10:06:25.849Z,11.67
2019-02-26T10:07:26.562Z,11.75
2019-02-26T10:08:28.126Z,11.71
2019-02-26T10:09:25.817Z,11.83
2019-02-26T10:10:28.237Z,11.87
2019-02-26T10:11:27.958Z,12.01
2019-02-26T10:12:27.998Z,11.97
2019-02-26T10:13:27.700Z,11.80
2019-02-26T10:14:26.966Z,11.82
2019-02-26T10:15:25.754Z,11.83
2019-02-26T10:16:28.112Z,11.87
2019-02-26T10:17:25.732Z,11.74
2019-02-26T10:18:27.789Z,11.70
2019-02-26T10:19:25.711Z,11.67
2019-02-26T10:20:28.599Z,11.71
2019-02-26T10:21:26.740Z,11.57
2019-02-26T10:22:26.144Z,11.53
2019-02-26T10:23:26.822Z,11.50
2019-02-26T10:24:27.335Z,11.43
2019-02-26T10:25:26.383Z,11.46
2019-02-26T10:26:26.425Z,11.39
2019-02-26T10:27:25.645Z,11.35
2019-02-26T10:28:25.613Z,11.43
2019-02-26T10:29:25.604Z,11.54
2019-02-26T10:30:27.705Z,11.59
2019-02-26T10:31:27.477Z,11.65
2019-02-26T10:32:26.485Z,11.68
2019-02-26T10:33:25.569Z,11.82
2019-02-26T10:34:30.020Z,11.87
2019-02-26T10:35:33.101Z,11.93
2019-02-26T10:36:30.342Z,11.93
2019-02-26T10:37:26.513Z,11.99
2019-02-26T10:38:29.618Z,12.01
2019-02-26T10:39:28.345Z,11.97
2019-02-26T10:40:34.666Z,12.01
2019-02-26T10:41:26.469Z,12.02
2019-02-26T10:42:25.465Z,12.04
2019-02-26T10:43:25.449Z,12.15
2019-02-26T10:44:25.438Z,12.13
2019-02-26T10:45:25.440Z,12.12
2019-02-26T10:46:25.416Z,12.16
2019-02-26T10:47:27.329Z,12.20
2019-02-26T10:48:27.986Z,12.24
2019-02-26T10:49:25.411Z,12.26
2019-02-26T10:50:31.031Z,12.33
2019-02-26T10:51:27.188Z,12.39
2019-02-26T10:52:26.375Z,12.42
2019-02-26T10:53:25.340Z,12.44
2019-02-26T10:54:25.336Z,12.38
2019-02-26T10:55:31.361Z,12.29
2019-02-26T10:56:28.710Z,12.26
2019-02-26T10:57:26.980Z,12.29
2019-02-26T10:58:25.291Z,12.29
2019-02-26T10:59:25.283Z,12.38
2019-02-26T11:00:27.934Z,12.30
2019-02-26T11:01:28.725Z,12.41
2019-02-26T11:02:27.815Z,12.46
2019-02-26T11:03:25.244Z,12.33
2019-02-26T11:04:34.505Z,12.44
2019-02-26T11:05:26.767Z,12.49
2019-02-26T11:06:25.201Z,12.46
2019-02-26T11:07:26.429Z,12.51
2019-02-26T11:08:27.239Z,12.59
2019-02-26T11:09:28.715Z,12.67
2019-02-26T11:10:25.328Z,12.62
2019-02-26T11:11:25.150Z,12.67
2019-02-26T11:12:27.763Z,12.64
2019-02-26T11:13:25.882Z,12.67
2019-02-26T11:14:25.114Z,12.74
2019-02-26T11:15:26.923Z,12.63
2019-02-26T11:16:27.817Z,12.70
2019-02-26T11:17:26.407Z,12.74
2019-02-26T11:18:25.070Z,12.75
2019-02-26T11:19:27.218Z,12.79
2019-02-26T11:20:27.672Z,12.78
2019-02-26T11:21:26.048Z,12.82
2019-02-26T11:22:25.793Z,12.70
2019-02-26T11:23:30.913Z,12.71
2019-02-26T11:24:28.180Z,12.74
2019-02-26T11:25:27.327Z,12.85
2019-02-26T11:26:24.982Z,12.78
2019-02-26T11:27:24.982Z,12.82
2019-02-26T11:28:29.760Z,12.85
2019-02-26T11:29:26.128Z,12.85
2019-02-26T11:30:28.585Z,12.87
2019-02-26T11:31:25.588Z,12.96
2019-02-26T11:32:27.173Z,13.03
2019-02-26T11:33:24.918Z,13.06
2019-02-26T11:34:25.542Z,13.04
2019-02-26T11:35:27.144Z,13.09
2019-02-26T11:36:25.187Z,13.11
2019-02-26T11:37:27.059Z,13.14
2019-02-26T11:38:24.849Z,13.18
2019-02-26T11:39:24.849Z,13.29
2019-02-26T11:40:27.410Z,13.27
2019-02-26T11:41:26.458Z,13.27
2019-02-26T11:42:26.185Z,13.36
2019-02-26T11:43:26.900Z,13.32
2019-02-26T11:44:25.805Z,13.30
2019-02-26T11:45:24.783Z,13.30
2019-02-26T11:46:26.772Z,13.30
2019-02-26T11:47:24.750Z,13.33
2019-02-26T11:48:25.915Z,13.36
2019-02-26T11:49:24.728Z,13.47
2019-02-26T11:50:28.046Z,13.41
2019-02-26T11:51:24.717Z,13.33
2019-02-26T11:52:24.695Z,13.54
2019-02-26T11:53:24.701Z,13.54
2019-02-26T11:54:24.675Z,13.47
2019-02-26T11:55:26.909Z,13.52
2019-02-26T11:56:25.720Z,13.54
2019-02-26T11:57:24.654Z,13.52
2019-02-26T11:58:26.907Z,13.56
2019-02-26T11:59:24.617Z,13.67
2019-02-26T12:00:25.853Z,13.62
2019-02-26T12:01:27.042Z,13.74
2019-02-26T12:02:28.006Z,13.71
2019-02-26T12:03:28.051Z,13.77
2019-02-26T12:04:25.019Z,13.88
2019-02-26T12:05:32.851Z,13.88
2019-02-26T12:06:25.539Z,13.76
2019-02-26T12:07:26.862Z,13.81
2019-02-26T12:08:25.746Z,13.88
2019-02-26T12:09:24.526Z,13.96
2019-02-26T12:10:27.089Z,13.84
2019-02-26T12:11:25.485Z,13.98
2019-02-26T12:12:25.730Z,14.02
2019-02-26T12:13:25.080Z,14.01
2019-02-26T12:14:24.453Z,14.13
2019-02-26T12:15:24.453Z,14.01
2019-02-26T12:16:24.431Z,14.07
2019-02-26T12:17:24.420Z,14.14
2019-02-26T12:18:24.409Z,14.21
2019-02-26T12:19:25.645Z,14.21
2019-02-26T12:20:24.388Z,14.34
2019-02-26T12:21:25.215Z,14.34
2019-02-26T12:22:25.177Z,14.34
2019-02-26T12:23:24.355Z,14.49
2019-02-26T12:24:26.430Z,14.34
2019-02-26T12:25:24.335Z,14.38
2019-02-26T12:26:25.525Z,14.43
2019-02-26T12:27:24.324Z,14.35
2019-02-26T12:28:25.476Z,14.49
2019-02-26T12:29:26.038Z,14.43
2019-02-26T12:30:24.281Z,14.47
2019-02-26T12:31:25.384Z,14.52
2019-02-26T12:32:24.990Z,14.54
2019-02-26T12:33:24.273Z,14.52
2019-02-26T12:34:24.240Z,14.57
2019-02-26T12:35:24.231Z,14.57
2019-02-26T12:36:26.462Z,14.68
2019-02-26T12:37:24.206Z,14.64
2019-02-26T12:38:24.195Z,14.65
2019-02-26T12:39:24.983Z,14.74
2019-02-26T12:40:25.479Z,14.78
2019-02-26T12:41:24.163Z,14.75
2019-02-26T12:42:24.156Z,14.78
2019-02-26T12:43:24.142Z,14.78
2019-02-26T12:44:24.132Z,14.81
2019-02-26T12:45:26.112Z,14.81
2019-02-26T12:46:25.116Z,14.74
2019-02-26T12:47:24.840Z,14.83
2019-02-26T12:48:24.091Z,14.78
2019-02-26T12:49:24.080Z,14.88
2019-02-26T12:50:27.210Z,14.98
2019-02-26T12:51:26.305Z,15.01
2019-02-26T12:52:26.899Z,15.05
2019-02-26T12:53:24.034Z,15.15
2019-02-26T12:54:24.247Z,15.13
2019-02-26T12:55:29.668Z,15.20
2019-02-26T12:56:27.872Z,15.09
2019-02-26T12:57:26.947Z,15.19
2019-02-26T12:58:27.548Z,15.13
2019-02-26T12:59:23.970Z,15.15
2019-02-26T13:00:23.958Z,15.17
2019-02-26T13:01:23.947Z,15.19
2019-02-26T13:02:25.524Z,15.13
2019-02-26T13:03:23.944Z,15.15
2019-02-26T13:04:25.068Z,15.20
2019-02-26T13:05:23.902Z,15.24
2019-02-26T13:06:23.895Z,15.21
2019-02-26T13:07:23.886Z,15.26
2019-02-26T13:08:24.305Z,15.33
2019-02-26T13:09:26.748Z,15.27
2019-02-26T13:10:23.850Z,15.24